Time;durP1;ratioP1;P1;durP2;ratioP2;P2;SDS_P1;SDS_P2;PMS_P1;PMS_P2;Temp;Humidity;BMP_temperature;BMP_pressure;BME280_temperature;BME280_humidity;BME280_pressure;Samples;Min_cycle;Max_cycle;Signal;HPM_P1;HPM_P2
2021/07/12 00:01:55;;;;;;;4.57;2.80;;;20.80;99.90;;;;;;4880847;29;20649;-87
2021/07/12 00:04:21;;;;;;;4.17;3.03;;;20.80;99.90;;;;;;4896538;29;20195;-88
2021/07/12 00:23:37;;;;;;;8.47;3.13;;;20.40;99.90;;;;;;4901311;29;20212;-88
2021/07/12 00:26:03;;;;;;;5.07;3.07;;;20.30;99.90;;;;;;4901421;29;20201;-89
2021/07/12 00:28:30;;;;;;;5.80;3.57;;;20.30;99.90;;;;;;4900800;29;20530;-87
2021/07/12 00:30:56;;;;;;;3.43;2.73;;;20.40;99.90;;;;;;4884755;29;20224;-87
2021/07/12 00:33:22;;;;;;;5.37;2.87;;;20.50;99.90;;;;;;4899950;29;20193;-88
2021/07/12 00:35:48;;;;;;;5.33;2.90;;;20.50;99.90;;;;;;4900955;29;20193;-87
2021/07/12 00:38:14;;;;;;;3.73;2.87;;;20.60;99.90;;;;;;4900051;29;20282;-87
2021/07/12 00:40:39;;;;;;;5.63;3.10;;;20.50;99.90;;;;;;4899574;29;20177;-88
2021/07/12 00:43:05;;;;;;;4.20;2.93;;;20.60;99.90;;;;;;4899739;29;20733;-88
2021/07/12 00:45:32;;;;;;;3.23;2.80;;;20.80;99.90;;;;;;4899567;29;20192;-89
2021/07/12 00:47:58;;;;;;;6.70;2.70;;;20.60;99.90;;;;;;4899717;29;20180;-88
2021/07/12 00:50:28;;;;;;;6.03;2.97;;;20.70;99.90;;;;;;4899659;29;20211;-89
2021/07/12 00:52:55;;;;;;;4.80;3.60;;;20.60;99.90;;;;;;4882866;29;20251;-82
2021/07/12 00:55:33;;;;;;;3.00;2.70;;;20.60;99.90;;;;;;4899072;29;20189;-82
2021/07/12 00:58:00;;;;;;;6.73;2.77;;;20.60;99.90;;;;;;4900016;29;20188;-82
2021/07/12 01:00:27;;;;;;;5.80;3.27;;;20.60;99.90;;;;;;4898736;29;20216;-82
2021/07/12 01:02:53;;;;;;;4.20;3.00;;;20.40;99.90;;;;;;4898210;29;20545;-82
2021/07/12 01:05:21;;;;;;;3.40;2.40;;;20.30;99.90;;;;;;4883436;29;20209;-82
2021/07/12 01:07:47;;;;;;;4.87;2.93;;;20.40;99.90;;;;;;4882926;29;20207;-82
2021/07/12 01:10:15;;;;;;;3.97;2.80;;;20.50;99.90;;;;;;4882722;29;20187;-82
2021/07/12 01:12:52;;;;;;;2.90;2.53;;;20.30;99.90;;;;;;4898459;29;20762;-83
2021/07/12 01:15:23;;;;;;;3.93;2.87;;;20.20;99.90;;;;;;4877308;29;20211;-82
2021/07/12 01:18:07;;;;;;;7.40;2.90;;;20.00;99.90;;;;;;4898204;29;20288;-82
2021/07/12 01:20:44;;;;;;;4.07;3.20;;;20.00;99.90;;;;;;4882632;29;20215;-82
2021/07/12 01:23:40;;;;;;;5.43;3.00;;;20.00;99.90;;;;;;4899469;29;20192;-82
2021/07/12 01:26:27;;;;;;;6.23;2.97;;;20.00;99.90;;;;;;4882418;29;20260;-82
2021/07/12 01:28:56;;;;;;;4.03;3.30;;;20.10;99.90;;;;;;4899438;29;20188;-82
2021/07/12 01:31:43;;;;;;;3.73;2.90;;;20.10;99.90;;;;;;4882155;29;20235;-82
2021/07/12 01:34:17;;;;;;;5.40;3.30;;;20.00;99.90;;;;;;4882244;29;20291;-82
2021/07/12 01:37:16;;;;;;;4.07;2.80;;;19.90;99.90;;;;;;4898126;29;20188;-82
2021/07/12 01:40:03;;;;;;;3.40;2.87;;;19.80;99.90;;;;;;4882988;29;20278;-82
2021/07/12 01:43:03;;;;;;;4.53;3.30;;;19.80;99.90;;;;;;4891433;29;20192;-82
2021/07/12 01:45:39;;;;;;;5.17;3.00;;;20.00;99.90;;;;;;4897775;29;20185;-82
2021/07/12 01:48:11;;;;;;;3.50;3.03;;;20.00;99.90;;;;;;4880044;29;20197;-82
2021/07/12 01:50:56;;;;;;;3.73;3.20;;;19.80;99.90;;;;;;4897533;29;20257;-82
2021/07/12 01:53:41;;;;;;;4.70;2.73;;;19.80;99.90;;;;;;4897564;29;20204;-83
2021/07/12 01:56:20;;;;;;;4.53;3.20;;;19.70;99.90;;;;;;4882020;29;20184;-84
2021/07/12 01:58:55;;;;;;;6.30;3.17;;;19.60;99.90;;;;;;4891673;29;20541;-83
2021/07/12 02:01:24;;;;;;;5.47;2.97;;;19.60;99.90;;;;;;4881654;29;20188;-83
2021/07/12 02:03:51;;;;;;;3.47;3.00;;;19.60;99.90;;;;;;4897510;29;20188;-82
2021/07/12 02:06:20;;;;;;;3.03;2.73;;;19.60;99.90;;;;;;4897562;29;20287;-83
2021/07/12 02:08:49;;;;;;;4.17;3.10;;;19.60;99.90;;;;;;4882016;29;20203;-82
2021/07/12 02:11:16;;;;;;;6.63;3.17;;;19.60;99.90;;;;;;4878783;29;20225;-82
2021/07/12 02:13:46;;;;;;;3.90;3.00;;;19.60;99.90;;;;;;4882801;29;20243;-90
2021/07/12 02:16:12;;;;;;;3.50;2.90;;;19.60;99.90;;;;;;4885618;29;20212;-87
2021/07/12 02:18:38;;;;;;;4.70;3.30;;;19.60;99.90;;;;;;4884016;29;20281;-86
2021/07/12 02:21:05;;;;;;;3.47;3.10;;;19.60;99.90;;;;;;4898025;29;20179;-88
2021/07/12 02:23:31;;;;;;;3.83;3.13;;;19.60;99.90;;;;;;4881931;29;20194;-88
2021/07/12 02:25:58;;;;;;;3.50;3.20;;;19.70;99.90;;;;;;4899193;29;20224;-88
2021/07/12 02:28:26;;;;;;;6.90;3.37;;;19.50;99.90;;;;;;4879367;29;20189;-88
2021/07/12 02:30:53;;;;;;;5.00;3.07;;;19.50;99.90;;;;;;4881438;29;20214;-88
2021/07/12 02:33:19;;;;;;;6.70;3.83;;;19.60;99.90;;;;;;4897939;29;20725;-88
2021/07/12 02:35:46;;;;;;;4.27;3.33;;;19.60;99.90;;;;;;4897143;29;20268;-88
2021/07/12 02:38:13;;;;;;;4.87;2.97;;;19.60;99.90;;;;;;4897646;29;20192;-89
2021/07/12 02:40:39;;;;;;;3.47;3.10;;;19.50;99.90;;;;;;4882034;29;20195;-87
2021/07/12 02:43:06;;;;;;;4.33;2.93;;;19.50;99.90;;;;;;4897597;29;20188;-89
2021/07/12 02:45:34;;;;;;;4.10;3.70;;;19.50;99.90;;;;;;4882266;29;20204;-89
2021/07/12 02:48:00;;;;;;;4.23;3.27;;;19.50;99.90;;;;;;4898569;29;20196;-88
2021/07/12 02:50:28;;;;;;;4.60;3.40;;;19.40;99.90;;;;;;4899000;29;20220;-88
2021/07/12 02:53:31;;;;;;;3.90;3.50;;;19.40;99.90;;;;;;4881467;29;20187;-86
2021/07/12 02:55:58;;;;;;;5.30;3.27;;;19.50;99.90;;;;;;4788292;29;20196;-88
2021/07/12 02:58:24;;;;;;;5.13;3.70;;;19.40;99.90;;;;;;4850845;29;20188;-88
2021/07/12 03:00:49;;;;;;;3.80;3.20;;;19.40;99.90;;;;;;4878686;29;20685;-87
2021/07/12 03:03:15;;;;;;;4.60;3.40;;;19.40;99.90;;;;;;4881805;29;20228;-88
2021/07/12 03:05:41;;;;;;;5.57;3.50;;;19.50;99.90;;;;;;4881565;29;20231;-87
2021/07/12 03:08:24;;;;;;;5.17;3.30;;;19.50;99.90;;;;;;4874410;29;20211;-88
2021/07/12 03:10:59;;;;;;;4.50;3.57;;;19.50;99.90;;;;;;4897123;29;20246;-88
2021/07/12 03:13:50;;;;;;;7.47;4.00;;;19.50;99.90;;;;;;4890732;29;20666;-88
2021/07/12 03:16:17;;;;;;;4.00;3.30;;;19.50;99.90;;;;;;4881540;29;20197;-88
2021/07/12 03:18:50;;;;;;;6.43;3.70;;;19.50;99.90;;;;;;4878698;29;20200;-87
2021/07/12 03:21:18;;;;;;;4.37;3.97;;;19.40;99.90;;;;;;4879806;29;20219;-89
2021/07/12 03:23:48;;;;;;;3.90;3.43;;;19.40;99.90;;;;;;4881499;29;20222;-87
2021/07/12 03:26:15;;;;;;;6.30;3.67;;;19.40;99.90;;;;;;4896689;29;20206;-88
2021/07/12 03:28:42;;;;;;;4.07;3.47;;;19.40;99.90;;;;;;4890111;29;20181;-89
2021/07/12 03:31:09;;;;;;;5.43;3.50;;;19.50;99.90;;;;;;4897167;29;20219;-89
2021/07/12 03:33:37;;;;;;;6.97;3.60;;;19.50;99.90;;;;;;4897139;29;20178;-88
2021/07/12 03:36:04;;;;;;;4.37;3.50;;;19.40;99.90;;;;;;4878353;29;20220;-87
2021/07/12 03:38:31;;;;;;;5.60;3.63;;;19.50;99.90;;;;;;4879824;29;20192;-87
2021/07/12 03:40:58;;;;;;;4.83;3.50;;;19.50;99.90;;;;;;4878012;29;20189;-88
2021/07/12 03:43:24;;;;;;;4.47;3.60;;;19.50;99.90;;;;;;4878404;29;20192;-88
2021/07/12 03:45:58;;;;;;;5.73;3.67;;;19.50;99.90;;;;;;4881507;29;20187;-87
2021/07/12 03:48:41;;;;;;;5.63;3.80;;;19.60;99.90;;;;;;4869510;29;20528;-88
2021/07/12 03:51:09;;;;;;;6.20;3.63;;;19.50;99.90;;;;;;4879020;29;20302;-87
2021/07/12 03:53:35;;;;;;;7.50;4.03;;;19.60;99.90;;;;;;4900490;29;20260;-88
2021/07/12 03:56:02;;;;;;;5.23;3.70;;;19.50;99.90;;;;;;4901590;29;20263;-87
2021/07/12 03:58:27;;;;;;;6.33;3.87;;;19.50;99.90;;;;;;4900769;29;20275;-87
2021/07/12 04:00:53;;;;;;;6.50;4.13;;;19.50;99.90;;;;;;4884690;29;20664;-88
2021/07/12 04:03:19;;;;;;;8.03;3.87;;;19.50;99.90;;;;;;4884940;29;20552;-88
2021/07/12 04:05:45;;;;;;;6.57;4.10;;;19.60;99.90;;;;;;4901495;29;20287;-87
2021/07/12 04:08:10;;;;;;;5.43;4.13;;;19.50;99.90;;;;;;4885075;29;20180;-88
2021/07/12 04:10:37;;;;;;;6.73;4.00;;;19.40;99.90;;;;;;4900219;29;20643;-88
2021/07/12 04:13:04;;;;;;;5.53;4.30;;;19.20;99.90;;;;;;4899899;29;20202;-88
2021/07/12 04:15:30;;;;;;;6.23;4.67;;;19.20;99.90;;;;;;4884835;29;20184;-88
2021/07/12 04:17:56;;;;;;;5.97;4.57;;;19.30;99.90;;;;;;4899852;29;20743;-88
2021/07/12 04:20:21;;;;;;;6.33;4.10;;;19.40;99.90;;;;;;4884699;29;20187;-88
2021/07/12 04:22:47;;;;;;;5.93;3.90;;;19.20;99.90;;;;;;4900296;29;20278;-84
2021/07/12 04:25:13;;;;;;;6.33;4.13;;;19.10;99.90;;;;;;4883669;29;20206;-86
2021/07/12 04:27:40;;;;;;;4.73;3.80;;;19.00;99.90;;;;;;4883975;29;20199;-84
2021/07/12 04:30:08;;;;;;;4.47;3.70;;;19.00;99.90;;;;;;4883504;29;20230;-83
2021/07/12 04:32:34;;;;;;;7.37;3.73;;;19.00;99.90;;;;;;4884010;29;20537;-86
2021/07/12 04:35:00;;;;;;;4.30;3.90;;;19.10;99.90;;;;;;4899521;29;20180;-84
2021/07/12 04:37:26;;;;;;;4.63;3.90;;;19.20;99.90;;;;;;4891640;29;20336;-84
2021/07/12 04:39:51;;;;;;;5.97;4.57;;;19.40;99.90;;;;;;4900730;29;20191;-83
2021/07/12 04:42:17;;;;;;;4.70;4.00;;;19.50;99.90;;;;;;4898890;29;20191;-85
2021/07/12 04:44:43;;;;;;;6.07;4.10;;;19.50;99.90;;;;;;4899093;29;20196;-84
2021/07/12 04:47:10;;;;;;;6.13;4.60;;;19.50;99.90;;;;;;4882407;29;20247;-84
2021/07/12 04:49:35;;;;;;;5.97;3.93;;;19.50;99.90;;;;;;4882974;29;20255;-83
2021/07/12 04:52:02;;;;;;;5.57;3.87;;;19.50;99.90;;;;;;4899872;29;20316;-82
2021/07/12 04:54:28;;;;;;;5.57;4.00;;;19.60;99.90;;;;;;4882882;29;20269;-83
2021/07/12 04:56:53;;;;;;;4.57;3.93;;;19.80;99.90;;;;;;4883151;29;20283;-83
2021/07/12 04:59:25;;;;;;;4.20;3.40;;;20.00;99.90;;;;;;4898436;29;20682;-83
2021/07/12 05:01:51;;;;;;;4.40;3.70;;;20.00;99.90;;;;;;4899889;29;20188;-83
2021/07/12 05:04:17;;;;;;;4.77;3.43;;;20.00;99.90;;;;;;4882815;29;20216;-82
2021/07/12 05:06:43;;;;;;;6.70;3.67;;;20.00;99.90;;;;;;4897826;29;20243;-83
2021/07/12 05:09:08;;;;;;;7.60;4.20;;;20.30;99.90;;;;;;4899483;29;20192;-83
2021/07/12 05:11:34;;;;;;;5.20;4.30;;;20.40;99.90;;;;;;4898574;29;20265;-83
2021/07/12 05:14:01;;;;;;;6.47;3.77;;;20.50;99.90;;;;;;4898490;29;20183;-83
2021/07/12 05:16:27;;;;;;;7.77;3.83;;;20.50;99.90;;;;;;4883273;29;20713;-83
2021/07/12 05:18:54;;;;;;;6.60;4.00;;;20.30;99.90;;;;;;4898149;29;20195;-82
2021/07/12 05:21:19;;;;;;;7.70;3.73;;;20.30;99.90;;;;;;4898403;29;20649;-85
2021/07/12 05:23:45;;;;;;;6.13;4.20;;;20.60;99.90;;;;;;4899171;29;20202;-83
2021/07/12 05:26:11;;;;;;;6.57;4.03;;;20.70;99.90;;;;;;4898486;29;20613;-83
2021/07/12 05:28:37;;;;;;;3.87;3.17;;;20.80;99.90;;;;;;4897691;29;20189;-83
2021/07/12 05:31:04;;;;;;;4.13;3.30;;;20.70;99.90;;;;;;4881611;29;20250;-87
2021/07/12 05:33:30;;;;;;;3.73;2.97;;;20.70;99.90;;;;;;4873866;29;20676;-83
2021/07/12 05:35:55;;;;;;;3.23;2.63;;;20.70;99.90;;;;;;4897631;29;20200;-83
2021/07/12 05:38:21;;;;;;;4.73;2.77;;;20.80;99.90;;;;;;4896158;29;20196;-83
2021/07/12 05:40:46;;;;;;;5.93;3.23;;;20.80;99.90;;;;;;4897653;29;20184;-82
2021/07/12 05:43:12;;;;;;;3.67;2.70;;;21.10;99.90;;;;;;4896771;29;20348;-83
2021/07/12 05:45:37;;;;;;;3.60;2.63;;;21.20;99.90;;;;;;4897981;29;20668;-83
2021/07/12 05:48:03;;;;;;;7.67;2.63;;;21.30;99.90;;;;;;4897677;29;20223;-83
2021/07/12 05:50:29;;;;;;;3.30;2.10;;;21.40;99.90;;;;;;4897631;29;20192;-82
2021/07/12 05:52:55;;;;;;;4.53;2.30;;;21.40;99.90;;;;;;4883119;29;20196;-86
2021/07/12 05:55:20;;;;;;;4.00;2.40;;;21.50;99.90;;;;;;4896191;29;20600;-86
2021/07/12 05:57:46;;;;;;;3.40;2.10;;;21.60;99.90;;;;;;4897873;29;20556;-87
2021/07/12 06:00:12;;;;;;;3.63;2.20;;;21.60;99.90;;;;;;4881761;29;20193;-87
2021/07/12 06:02:42;;;;;;;2.60;1.90;;;21.60;99.90;;;;;;4873795;29;20208;-87
2021/07/12 06:05:08;;;;;;;3.37;1.80;;;21.80;99.90;;;;;;4878589;29;20233;-88
2021/07/12 06:07:34;;;;;;;3.50;2.33;;;21.90;99.90;;;;;;4896957;29;20189;-88
2021/07/12 06:10:00;;;;;;;2.93;1.87;;;21.90;99.90;;;;;;4897214;29;20205;-87
2021/07/12 06:12:25;;;;;;;3.60;2.20;;;21.90;99.90;;;;;;4897664;29;20267;-87
2021/07/12 06:14:51;;;;;;;5.40;2.30;;;22.10;99.90;;;;;;4897827;29;20185;-88
2021/07/12 06:17:16;;;;;;;6.03;1.60;;;22.30;99.90;;;;;;4882570;29;20198;-85
2021/07/12 06:19:42;;;;;;;5.20;1.83;;;22.40;99.90;;;;;;4867224;29;20237;-88
2021/07/12 06:22:08;;;;;;;2.73;1.87;;;22.40;99.90;;;;;;4897592;29;20668;-87
2021/07/12 06:24:33;;;;;;;3.97;2.20;;;22.60;99.90;;;;;;4881815;29;20207;-87
2021/07/12 06:26:59;;;;;;;6.40;2.00;;;22.70;99.90;;;;;;4897792;29;20200;-87
2021/07/12 06:29:25;;;;;;;2.63;1.80;;;22.80;99.90;;;;;;4897998;29;20193;-87
2021/07/12 06:31:50;;;;;;;3.50;1.63;;;22.80;99.90;;;;;;4896799;29;20217;-87
2021/07/12 06:34:16;;;;;;;2.47;1.80;;;23.00;99.90;;;;;;4897371;29;20187;-87
2021/07/12 06:36:41;;;;;;;3.40;1.50;;;23.10;99.90;;;;;;4881906;29;20189;-86
2021/07/12 06:39:07;;;;;;;2.63;1.77;;;23.10;99.90;;;;;;4896523;29;20661;-87
2021/07/12 06:41:33;;;;;;;2.23;1.73;;;23.30;99.90;;;;;;4881967;29;20257;-85
2021/07/12 06:43:59;;;;;;;5.40;2.00;;;23.40;99.90;;;;;;4881892;29;20247;-84
2021/07/12 06:46:25;;;;;;;2.10;1.60;;;23.40;99.90;;;;;;4878647;29;20202;-85
2021/07/12 06:48:51;;;;;;;2.63;1.80;;;23.60;99.90;;;;;;4879390;29;20604;-84
2021/07/12 06:51:17;;;;;;;2.33;1.73;;;23.50;99.80;;;;;;4881518;29;20745;-85
2021/07/12 06:53:43;;;;;;;2.60;1.67;;;23.50;99.70;;;;;;4890208;29;20185;-84
2021/07/12 06:56:08;;;;;;;1.87;1.63;;;23.40;99.50;;;;;;4891969;29;20253;-85
2021/07/12 06:58:34;;;;;;;2.63;1.90;;;23.50;99.50;;;;;;4896467;29;20193;-84
2021/07/12 07:00:59;;;;;;;2.50;1.77;;;23.40;99.50;;;;;;4896409;29;20248;-82
2021/07/12 07:03:25;;;;;;;2.47;1.67;;;23.40;99.30;;;;;;4897858;29;20213;-83
2021/07/12 07:05:52;;;;;;;3.40;1.57;;;23.40;99.50;;;;;;4880589;29;20214;-85
2021/07/12 07:08:17;;;;;;;3.70;1.50;;;23.40;99.90;;;;;;4878470;29;20198;-80
2021/07/12 07:10:43;;;;;;;2.47;1.40;;;23.40;99.80;;;;;;4880628;29;20217;-79
2021/07/12 07:13:08;;;;;;;3.03;1.47;;;23.40;99.90;;;;;;4896990;29;20204;-79
2021/07/12 07:15:34;;;;;;;1.80;1.57;;;23.70;99.90;;;;;;4880753;29;20192;-79
2021/07/12 07:18:00;;;;;;;3.00;1.77;;;23.90;99.90;;;;;;4896032;29;20253;-80
2021/07/12 07:20:26;;;;;;;3.97;1.67;;;23.90;99.90;;;;;;4897098;29;20193;-80
2021/07/12 07:22:51;;;;;;;3.73;1.20;;;24.10;99.90;;;;;;4877472;29;20638;-80
2021/07/12 07:25:17;;;;;;;3.87;1.70;;;24.20;99.90;;;;;;4893247;29;20653;-79
2021/07/12 07:27:44;;;;;;;3.77;1.83;;;24.40;99.70;;;;;;4895876;29;20185;-80
2021/07/12 07:30:11;;;;;;;2.70;1.43;;;24.50;98.70;;;;;;4877629;29;20233;-79
2021/07/12 07:32:37;;;;;;;1.97;1.60;;;24.60;98.70;;;;;;4863671;29;20229;-78
2021/07/12 07:35:04;;;;;;;3.20;1.77;;;24.60;98.80;;;;;;4897494;29;20634;-79
2021/07/12 07:37:30;;;;;;;3.03;1.57;;;24.70;98.10;;;;;;4897053;29;20240;-79
2021/07/12 07:39:55;;;;;;;2.07;1.43;;;24.70;98.30;;;;;;4890158;29;20594;-79
2021/07/12 07:42:22;;;;;;;2.57;1.67;;;24.80;97.80;;;;;;4895804;29;20646;-79
2021/07/12 07:44:48;;;;;;;2.27;1.60;;;24.70;98.00;;;;;;4880248;29;20270;-79
2021/07/12 07:47:15;;;;;;;3.37;1.43;;;24.80;98.20;;;;;;4880025;29;20612;-79
2021/07/12 07:49:41;;;;;;;4.97;1.50;;;24.90;97.80;;;;;;4897123;29;20188;-78
2021/07/12 07:52:06;;;;;;;2.63;1.47;;;25.00;98.20;;;;;;4896998;29;20231;-80
2021/07/12 07:54:32;;;;;;;2.20;1.30;;;25.20;97.70;;;;;;4895735;29;20181;-79
2021/07/12 07:56:58;;;;;;;2.00;1.57;;;25.30;97.10;;;;;;4895457;29;20727;-79
2021/07/12 07:59:23;;;;;;;2.77;1.50;;;25.30;97.60;;;;;;4897057;29;20643;-79
2021/07/12 08:01:49;;;;;;;2.07;1.50;;;25.10;98.40;;;;;;4896726;29;20189;-79
2021/07/12 08:04:14;;;;;;;2.50;1.33;;;25.10;98.50;;;;;;4879975;29;20199;-80
2021/07/12 08:06:40;;;;;;;1.90;1.50;;;25.20;98.40;;;;;;4896875;29;20222;-79
2021/07/12 08:09:05;;;;;;;2.63;1.23;;;25.30;98.20;;;;;;4896730;29;20202;-78
2021/07/12 08:11:32;;;;;;;2.00;1.30;;;25.40;98.00;;;;;;4895398;29;20223;-79
2021/07/12 08:13:58;;;;;;;3.13;1.47;;;25.50;98.00;;;;;;4897010;29;20243;-79
2021/07/12 08:16:23;;;;;;;5.73;1.70;;;25.60;97.50;;;;;;4895288;29;20290;-79
2021/07/12 08:18:49;;;;;;;2.20;1.50;;;25.60;97.20;;;;;;4896816;29;20196;-80
2021/07/12 08:21:14;;;;;;;3.77;1.63;;;25.70;96.70;;;;;;4896716;29;20196;-79
2021/07/12 08:23:42;;;;;;;3.33;1.53;;;25.90;96.60;;;;;;4896782;29;20192;-79
2021/07/12 08:26:11;;;;;;;5.80;1.50;;;25.80;97.00;;;;;;4896851;29;20197;-79
2021/07/12 08:28:38;;;;;;;3.73;1.60;;;26.00;96.80;;;;;;4896454;29;20259;-80
2021/07/12 08:31:04;;;;;;;2.20;1.63;;;26.10;96.30;;;;;;4896027;29;20680;-79
2021/07/12 08:33:30;;;;;;;3.23;1.67;;;26.20;96.30;;;;;;4897447;29;20276;-79
2021/07/12 08:35:56;;;;;;;3.50;1.53;;;26.20;96.40;;;;;;4900314;29;20261;-79
2021/07/12 08:38:21;;;;;;;6.50;1.40;;;26.20;95.90;;;;;;4900010;29;20227;-79
2021/07/12 08:40:47;;;;;;;2.00;1.60;;;26.20;96.50;;;;;;4882765;29;20200;-79
2021/07/12 08:43:14;;;;;;;3.60;1.70;;;26.20;95.80;;;;;;4900023;29;20190;-79
2021/07/12 08:45:40;;;;;;;5.47;1.57;;;26.40;95.00;;;;;;4880159;29;20614;-79
2021/07/12 08:48:06;;;;;;;2.43;1.60;;;26.20;95.40;;;;;;4892277;29;20177;-79
2021/07/12 08:50:32;;;;;;;5.83;1.30;;;26.20;95.90;;;;;;4899727;29;20550;-79
2021/07/12 08:52:57;;;;;;;2.53;1.60;;;26.30;95.30;;;;;;4881583;29;20193;-79
2021/07/12 08:55:25;;;;;;;3.33;1.50;;;26.30;95.80;;;;;;4898752;29;20239;-79
2021/07/12 08:58:08;;;;;;;1.57;1.27;;;26.30;96.30;;;;;;4882662;29;20184;-79
2021/07/12 09:00:38;;;;;;;3.27;1.50;;;26.30;96.10;;;;;;4894507;29;20185;-79
2021/07/12 09:03:18;;;;;;;1.80;1.60;;;26.50;95.60;;;;;;4897885;29;20181;-79
2021/07/12 09:05:59;;;;;;;2.23;1.60;;;26.50;95.20;;;;;;4882708;29;20256;-79
2021/07/12 09:08:53;;;;;;;2.23;1.60;;;26.70;96.50;;;;;;4899537;29;20192;-79
2021/07/12 09:11:22;;;;;;;2.30;1.27;;;26.90;95.80;;;;;;4899111;29;20217;-79
2021/07/12 09:13:52;;;;;;;3.10;1.30;;;27.00;95.00;;;;;;4882780;29;20185;-79
2021/07/12 09:16:38;;;;;;;4.63;1.50;;;27.10;95.00;;;;;;4898385;29;20558;-79
2021/07/12 09:19:19;;;;;;;1.33;1.23;;;27.20;93.80;;;;;;4899272;29;20189;-80
2021/07/12 09:21:46;;;;;;;4.53;1.80;;;27.40;93.90;;;;;;4892819;29;20264;-79
2021/07/12 09:24:23;;;;;;;3.20;1.67;;;27.30;94.40;;;;;;4899015;29;20186;-80
2021/07/12 09:26:58;;;;;;;3.00;1.77;;;27.30;94.40;;;;;;4887774;29;20200;-80
2021/07/12 09:29:27;;;;;;;3.27;1.83;;;27.20;95.20;;;;;;4895038;29;20191;-79
2021/07/12 09:31:53;;;;;;;2.73;1.70;;;27.10;94.60;;;;;;4898047;29;20270;-79
2021/07/12 09:34:19;;;;;;;2.63;1.67;;;27.00;94.40;;;;;;4899141;29;20189;-79
2021/07/12 09:36:46;;;;;;;2.63;1.77;;;27.00;95.10;;;;;;4897465;29;20649;-80
2021/07/12 09:39:22;;;;;;;2.30;1.60;;;27.00;94.80;;;;;;4898915;29;20177;-79
2021/07/12 09:41:50;;;;;;;1.67;1.37;;;27.00;94.70;;;;;;4897416;29;20200;-80
2021/07/12 09:44:21;;;;;;;3.37;1.57;;;26.90;95.50;;;;;;4898121;29;20249;-79
2021/07/12 09:46:47;;;;;;;5.00;1.50;;;26.90;95.40;;;;;;4879397;29;20188;-79
2021/07/12 09:49:16;;;;;;;3.47;1.47;;;26.80;95.10;;;;;;4897586;29;20186;-79
2021/07/12 09:51:43;;;;;;;1.80;1.33;;;26.90;95.10;;;;;;4898723;29;20231;-79
2021/07/12 09:54:23;;;;;;;1.97;1.37;;;26.90;94.40;;;;;;4881862;29;20186;-79
2021/07/12 09:56:51;;;;;;;2.50;1.63;;;26.90;94.40;;;;;;4881593;29;20189;-80
2021/07/12 09:59:18;;;;;;;2.23;1.40;;;26.80;94.60;;;;;;4891177;29;20630;-79
2021/07/12 10:01:53;;;;;;;2.47;1.20;;;26.80;94.70;;;;;;4898583;29;20192;-80
2021/07/12 10:04:19;;;;;;;1.83;1.37;;;26.80;93.90;;;;;;4890686;29;20181;-79
2021/07/12 10:06:46;;;;;;;1.80;1.50;;;26.70;93.70;;;;;;4898701;29;20260;-79
2021/07/12 10:09:13;;;;;;;3.23;1.43;;;26.70;93.30;;;;;;4879743;29;20525;-79
2021/07/12 10:11:40;;;;;;;3.73;1.60;;;26.60;93.40;;;;;;4897432;29;20224;-80
2021/07/12 10:14:06;;;;;;;5.03;1.50;;;26.70;93.70;;;;;;4898219;29;20201;-80
2021/07/12 10:16:32;;;;;;;1.30;1.10;;;26.70;94.10;;;;;;4898214;29;20240;-80
2021/07/12 10:18:59;;;;;;;2.20;1.20;;;26.90;93.30;;;;;;4881575;29;20184;-80
2021/07/12 10:21:32;;;;;;;2.33;1.27;;;26.90;93.20;;;;;;4898084;29;20219;-80
2021/07/12 10:23:58;;;;;;;3.03;1.57;;;27.10;92.80;;;;;;4896950;29;20642;-80
2021/07/12 10:26:44;;;;;;;2.27;1.60;;;27.30;93.00;;;;;;4897868;29;20212;-79
2021/07/12 10:29:22;;;;;;;1.60;1.33;;;27.30;93.20;;;;;;4896726;29;20212;-80
2021/07/12 10:32:10;;;;;;;1.77;1.20;;;27.50;92.80;;;;;;4897963;29;20333;-80
2021/07/12 10:34:51;;;;;;;3.30;1.60;;;27.70;92.50;;;;;;4896721;29;20251;-79
2021/07/12 10:37:35;;;;;;;3.77;1.30;;;27.90;92.40;;;;;;4897815;29;20193;-79
2021/07/12 10:40:08;;;;;;;3.03;1.63;;;28.00;92.90;;;;;;4881209;29;20184;-80
2021/07/12 10:42:46;;;;;;;3.50;1.60;;;28.00;92.60;;;;;;4880531;29;20706;-79
2021/07/12 10:45:16;;;;;;;1.60;1.17;;;28.10;92.80;;;;;;4898091;29;20272;-80
2021/07/12 10:47:54;;;;;;;3.27;1.40;;;28.20;92.60;;;;;;4897887;29;20185;-79
2021/07/12 10:50:35;;;;;;;2.60;1.70;;;28.00;92.90;;;;;;4880634;29;20196;-79
2021/07/12 10:53:24;;;;;;;1.97;1.47;;;27.90;93.40;;;;;;4880632;29;20203;-80
2021/07/12 10:56:11;;;;;;;2.30;1.40;;;27.90;92.90;;;;;;4896764;29;20551;-80
2021/07/12 10:58:39;;;;;;;2.63;1.20;;;28.00;92.20;;;;;;4892073;29;20218;-80
2021/07/12 11:01:07;;;;;;;2.90;1.43;;;28.20;91.40;;;;;;4897359;29;20233;-80
2021/07/12 11:03:44;;;;;;;1.53;1.27;;;28.00;90.60;;;;;;4896597;29;20185;-80
2021/07/12 11:06:12;;;;;;;2.17;1.20;;;28.10;89.50;;;;;;4879322;29;20293;-79
2021/07/12 11:08:50;;;;;;;2.67;1.23;;;28.10;89.80;;;;;;4896406;29;20173;-80
2021/07/12 11:11:19;;;;;;;2.47;1.37;;;28.00;90.20;;;;;;4880033;29;20280;-80
2021/07/12 11:14:05;;;;;;;1.40;1.30;;;27.80;90.40;;;;;;4881047;29;20280;-79
2021/07/12 11:16:36;;;;;;;2.47;1.80;;;28.00;90.40;;;;;;4885637;29;20178;-80
2021/07/12 11:19:25;;;;;;;3.93;1.33;;;28.10;90.70;;;;;;4877231;29;20634;-79
2021/07/12 11:21:51;;;;;;;1.63;1.30;;;28.20;91.20;;;;;;4880334;29;20655;-80
2021/07/12 11:24:20;;;;;;;2.53;1.50;;;28.30;91.30;;;;;;4896007;29;20642;-80
2021/07/12 11:26:50;;;;;;;1.73;1.23;;;28.20;90.90;;;;;;4897122;29;20658;-80
2021/07/12 11:29:35;;;;;;;2.63;1.70;;;28.20;91.40;;;;;;4897242;29;20207;-80
2021/07/12 11:32:07;;;;;;;17.43;3.87;;;28.30;91.10;;;;;;4879973;29;20217;-80
2021/07/12 11:34:39;;;;;;;2.13;1.53;;;28.40;90.90;;;;;;4897052;29;20190;-79
2021/07/12 11:37:17;;;;;;;3.17;1.43;;;28.40;90.60;;;;;;4897268;29;20181;-79
2021/07/12 11:39:45;;;;;;;4.00;1.67;;;28.30;90.40;;;;;;4896827;29;20185;-80
2021/07/12 11:42:15;;;;;;;3.40;1.40;;;28.20;90.80;;;;;;4895996;29;20204;-79
2021/07/12 11:45:07;;;;;;;11.30;2.83;;;28.10;91.10;;;;;;4880462;29;20193;-79
2021/07/12 11:47:38;;;;;;;1.60;1.27;;;28.20;91.00;;;;;;4890567;29;20193;-79
2021/07/12 11:50:16;;;;;;;3.10;1.60;;;28.20;90.80;;;;;;4897196;29;20190;-80
2021/07/12 11:52:48;;;;;;;1.50;1.33;;;27.90;91.00;;;;;;4878992;29;20229;-80
2021/07/12 11:55:25;;;;;;;2.17;1.67;;;27.80;92.00;;;;;;4877049;29;20186;-80
2021/07/12 11:57:55;;;;;;;2.10;1.60;;;27.90;92.10;;;;;;4896158;29;20189;-80
2021/07/12 12:00:27;;;;;;;2.20;1.67;;;28.00;91.60;;;;;;4896913;29;20181;-79
2021/07/12 12:03:14;;;;;;;5.63;1.67;;;28.10;91.50;;;;;;4879975;29;20193;-80
2021/07/12 12:05:42;;;;;;;1.40;1.30;;;28.20;91.10;;;;;;4877670;29;20221;-80
2021/07/12 12:08:09;;;;;;;4.93;1.40;;;28.40;90.30;;;;;;4895679;29;20189;-79
2021/07/12 12:10:39;;;;;;;2.73;1.50;;;28.40;90.60;;;;;;4899276;29;20188;-80
2021/07/12 12:13:13;;;;;;;1.83;1.57;;;28.60;90.60;;;;;;4880425;29;20206;-80
2021/07/12 12:15:41;;;;;;;2.60;1.50;;;28.60;90.10;;;;;;4880313;29;20228;-79
2021/07/12 12:18:09;;;;;;;2.90;1.60;;;28.70;90.40;;;;;;4893082;29;20196;-80
2021/07/12 12:20:51;;;;;;;1.77;1.33;;;28.60;89.20;;;;;;4900364;29;20558;-80
2021/07/12 12:23:16;;;;;;;2.40;1.53;;;28.40;89.60;;;;;;4892447;29;20662;-80
2021/07/12 12:25:54;;;;;;;1.83;1.50;;;28.30;90.10;;;;;;4883528;29;20241;-80
2021/07/12 12:28:33;;;;;;;2.20;1.43;;;28.40;90.50;;;;;;4876435;29;20599;-80
2021/07/12 12:31:08;;;;;;;9.47;1.70;;;28.40;88.70;;;;;;4898730;29;20216;-79
2021/07/12 12:33:42;;;;;;;2.10;1.77;;;28.40;88.10;;;;;;4895496;29;20264;-80
2021/07/12 12:36:11;;;;;;;4.03;1.73;;;28.30;88.10;;;;;;4900011;29;20184;-79
2021/07/12 12:39:09;;;;;;;1.67;1.53;;;28.10;88.70;;;;;;4898385;29;20181;-80
2021/07/12 12:41:37;;;;;;;3.07;1.50;;;28.00;88.50;;;;;;4865015;29;20190;-79
2021/07/12 12:44:06;;;;;;;3.77;1.63;;;27.70;89.40;;;;;;4879519;29;20212;-79
2021/07/12 12:46:37;;;;;;;3.30;1.80;;;27.80;88.60;;;;;;4900017;29;20192;-79
2021/07/12 12:49:13;;;;;;;1.97;1.50;;;27.90;89.40;;;;;;4881971;29;20185;-79
2021/07/12 12:51:47;;;;;;;2.10;1.47;;;27.80;87.30;;;;;;4882445;29;20307;-79
2021/07/12 12:54:13;;;;;;;2.13;1.53;;;27.60;88.60;;;;;;4899173;29;20219;-79
2021/07/12 12:56:47;;;;;;;2.03;1.77;;;27.50;88.90;;;;;;4899839;29;20636;-79
2021/07/12 12:59:13;;;;;;;2.80;1.93;;;27.40;90.40;;;;;;4898180;29;20192;-79
2021/07/12 13:01:44;;;;;;;4.00;1.90;;;27.30;91.50;;;;;;4899669;29;20602;-79
2021/07/12 13:04:14;;;;;;;4.63;2.10;;;26.60;92.10;;;;;;4899311;29;20659;-79
2021/07/12 13:06:49;;;;;;;3.60;1.90;;;26.20;92.70;;;;;;4898014;29;20213;-79
2021/07/12 13:09:27;;;;;;;6.30;2.80;;;25.60;93.30;;;;;;4880809;29;20192;-79
2021/07/12 13:12:15;;;;;;;10.93;3.50;;;24.30;99.90;;;;;;4898383;29;20248;-79
2021/07/12 13:14:47;;;;;;;8.03;3.30;;;21.90;99.90;;;;;;4882582;29;20193;-79
2021/07/12 13:17:15;;;;;;;5.40;3.07;;;20.80;99.90;;;;;;4882284;29;20601;-78